Hovedside
METAR-TAF:

METAR-TAF

Lufthavner :

Örnsköldsvik, Sverige

Örnsköldsvik lufthavn

breddegrad: 63-24N, lengdegrad: 018-58E, høyde over havet: 103 m

Gjeldene værobservasjon

Denne rapporten ble laget for 24 minutter siden, klokken 18:20 UTC
Vind 1 kt fra Nord
Temperatur 7°C
Luftfuktighet 100%
Trykk 1029 hPa
Sikt 10 km eller mer
Få skyer i en høyde av 2400 ft

METAR: ESNO 221820Z 35001KT 9999 FEW024 07/07 Q1029

Tid: 20:44 (18:44 UTC)

Varsel

Denne rapporten ble laget for 1 time og 14 minutter siden, klokken 17:30 UTC
Varsel gyldig fra 22. klokken 18 UTC til 22. klokken 22 UTC
Vind 3 kt fra Nord-nordøst
Sikt 10 km eller mer
Få skyer i en høyde av 700 ft
Sannsynlighet 40%
fra 22. klokken 18 UTC til 22. klokken 22 UTC
Brutte skyer i en høyde av 700 ft

TAF: ESNO 221730Z 2218/2222 03003KT 9999 FEW007 PROB40 2218/2222 BKN007

Værobservasjoner og værvarsel for over 4000 flyplasser (METAR- og TAF-rapporter).

Tilgjengelige stasjoner er representert av de røde og gule prikkene på kartet.

Hold musepekeren over prikken for å se navnet på stasjonen.

Klikk så for å se værobservasjoner og -varsler.

For å forandre kartet kan du klikke på den grønne knappen med svart kryss for å zoome inn, på den grønne knappen med strek for å zoome ut, eller på de grønne pilene for å se tilstøtende kart.


METAR-TAF: